sensor_id;sensor_type;location;lat;lon;timestamp;P1;durP1;ratioP1;P2;durP2;ratioP2
48945;SDS011;34999;50.940;3.998;2023-05-15T00:00:09;57.47;;;33.77;;
48945;SDS011;34999;50.940;3.998;2023-05-15T00:02:39;61.33;;;34.57;;
48945;SDS011;34999;50.940;3.998;2023-05-15T00:05:09;62.13;;;33.73;;
48945;SDS011;34999;50.940;3.998;2023-05-15T00:07:39;62.63;;;34.07;;
48945;SDS011;34999;50.940;3.998;2023-05-15T00:10:07;65.03;;;34.87;;
48945;SDS011;34999;50.940;3.998;2023-05-15T00:12:35;58.20;;;33.83;;
48945;SDS011;34999;50.940;3.998;2023-05-15T00:15:04;63.53;;;35.77;;
48945;SDS011;34999;50.940;3.998;2023-05-15T00:17:33;63.30;;;35.60;;
48945;SDS011;34999;50.940;3.998;2023-05-15T00:20:03;66.80;;;36.23;;
48945;SDS011;34999;50.940;3.998;2023-05-15T00:22:32;63.30;;;35.03;;
48945;SDS011;34999;50.940;3.998;2023-05-15T00:25:00;68.07;;;37.63;;
48945;SDS011;34999;50.940;3.998;2023-05-15T00:27:28;67.83;;;36.10;;
48945;SDS011;34999;50.940;3.998;2023-05-15T00:29:56;61.50;;;35.90;;
48945;SDS011;34999;50.940;3.998;2023-05-15T00:32:25;64.67;;;36.80;;
48945;SDS011;34999;50.940;3.998;2023-05-15T00:34:53;68.80;;;37.67;;
48945;SDS011;34999;50.940;3.998;2023-05-15T00:37:23;69.43;;;37.30;;
48945;SDS011;34999;50.940;3.998;2023-05-15T00:39:51;77.97;;;38.77;;
48945;SDS011;34999;50.940;3.998;2023-05-15T00:42:19;68.57;;;36.30;;
48945;SDS011;34999;50.940;3.998;2023-05-15T00:44:48;70.43;;;37.27;;
48945;SDS011;34999;50.940;3.998;2023-05-15T00:47:19;72.27;;;38.50;;
48945;SDS011;34999;50.940;3.998;2023-05-15T00:49:48;66.27;;;36.80;;
48945;SDS011;34999;50.940;3.998;2023-05-15T00:52:18;69.63;;;38.57;;
48945;SDS011;34999;50.940;3.998;2023-05-15T00:54:48;67.73;;;36.63;;
48945;SDS011;34999;50.940;3.998;2023-05-15T00:57:16;70.50;;;37.60;;
48945;SDS011;34999;50.940;3.998;2023-05-15T00:59:46;71.40;;;38.17;;
48945;SDS011;34999;50.940;3.998;2023-05-15T01:11:47;72.63;;;37.50;;
48945;SDS011;34999;50.940;3.998;2023-05-15T01:14:19;72.77;;;39.57;;
48945;SDS011;34999;50.940;3.998;2023-05-15T01:16:48;69.70;;;38.77;;
48945;SDS011;34999;50.940;3.998;2023-05-15T01:19:16;70.53;;;37.83;;
48945;SDS011;34999;50.940;3.998;2023-05-15T01:21:54;78.77;;;40.23;;
48945;SDS011;34999;50.940;3.998;2023-05-15T01:24:46;72.80;;;38.70;;
48945;SDS011;34999;50.940;3.998;2023-05-15T01:27:32;71.93;;;39.77;;
48945;SDS011;34999;50.940;3.998;2023-05-15T01:30:07;76.07;;;40.40;;
48945;SDS011;34999;50.940;3.998;2023-05-15T01:32:46;70.43;;;37.87;;
48945;SDS011;34999;50.940;3.998;2023-05-15T01:35:20;71.63;;;40.13;;
48945;SDS011;34999;50.940;3.998;2023-05-15T01:37:57;81.73;;;40.93;;
48945;SDS011;34999;50.940;3.998;2023-05-15T01:40:39;77.67;;;41.93;;
48945;SDS011;34999;50.940;3.998;2023-05-15T01:43:10;77.30;;;41.43;;
48945;SDS011;34999;50.940;3.998;2023-05-15T01:45:42;79.33;;;42.93;;
48945;SDS011;34999;50.940;3.998;2023-05-15T01:48:11;83.73;;;42.30;;
48945;SDS011;34999;50.940;3.998;2023-05-15T01:50:41;88.07;;;44.23;;
48945;SDS011;34999;50.940;3.998;2023-05-15T01:53:11;87.20;;;44.80;;
48945;SDS011;34999;50.940;3.998;2023-05-15T01:55:41;85.57;;;43.63;;
48945;SDS011;34999;50.940;3.998;2023-05-15T01:58:12;84.20;;;43.83;;
48945;SDS011;34999;50.940;3.998;2023-05-15T02:00:42;83.57;;;44.03;;
48945;SDS011;34999;50.940;3.998;2023-05-15T02:03:11;86.20;;;42.37;;
48945;SDS011;34999;50.940;3.998;2023-05-15T02:05:40;81.03;;;42.10;;
48945;SDS011;34999;50.940;3.998;2023-05-15T02:08:09;83.43;;;42.50;;
48945;SDS011;34999;50.940;3.998;2023-05-15T02:10:38;85.73;;;43.67;;
48945;SDS011;34999;50.940;3.998;2023-05-15T02:13:07;81.17;;;42.30;;
48945;SDS011;34999;50.940;3.998;2023-05-15T02:15:37;80.40;;;40.03;;
48945;SDS011;34999;50.940;3.998;2023-05-15T02:18:06;81.53;;;42.20;;
48945;SDS011;34999;50.940;3.998;2023-05-15T02:20:34;85.93;;;44.03;;
48945;SDS011;34999;50.940;3.998;2023-05-15T02:23:02;93.67;;;45.87;;
48945;SDS011;34999;50.940;3.998;2023-05-15T02:25:32;98.83;;;47.33;;
48945;SDS011;34999;50.940;3.998;2023-05-15T02:28:09;94.27;;;45.10;;
48945;SDS011;34999;50.940;3.998;2023-05-15T02:34:27;100.70;;;48.07;;
48945;SDS011;34999;50.940;3.998;2023-05-15T02:37:03;99.63;;;49.00;;
48945;SDS011;34999;50.940;3.998;2023-05-15T02:39:34;108.50;;;49.07;;
48945;SDS011;34999;50.940;3.998;2023-05-15T02:42:05;103.73;;;49.80;;
48945;SDS011;34999;50.940;3.998;2023-05-15T02:44:35;99.93;;;50.07;;
48945;SDS011;34999;50.940;3.998;2023-05-15T02:47:05;104.43;;;49.73;;
48945;SDS011;34999;50.940;3.998;2023-05-15T02:49:36;111.00;;;51.57;;
48945;SDS011;34999;50.940;3.998;2023-05-15T02:52:05;100.67;;;48.63;;
48945;SDS011;34999;50.940;3.998;2023-05-15T02:54:34;106.17;;;49.40;;
48945;SDS011;34999;50.940;3.998;2023-05-15T02:57:02;110.03;;;51.03;;
48945;SDS011;34999;50.940;3.998;2023-05-15T02:59:30;110.00;;;51.40;;
48945;SDS011;34999;50.940;3.998;2023-05-15T03:01:59;106.30;;;49.53;;
48945;SDS011;34999;50.940;3.998;2023-05-15T03:04:28;112.60;;;49.23;;
48945;SDS011;34999;50.940;3.998;2023-05-15T03:06:58;108.50;;;49.60;;
48945;SDS011;34999;50.940;3.998;2023-05-15T03:09:26;101.97;;;47.57;;
48945;SDS011;34999;50.940;3.998;2023-05-15T03:11:57;108.50;;;49.13;;
48945;SDS011;34999;50.940;3.998;2023-05-15T03:14:26;112.77;;;51.13;;
48945;SDS011;34999;50.940;3.998;2023-05-15T03:16:54;108.13;;;48.23;;
48945;SDS011;34999;50.940;3.998;2023-05-15T03:19:22;109.97;;;49.40;;
48945;SDS011;34999;50.940;3.998;2023-05-15T03:21:50;111.93;;;52.07;;
48945;SDS011;34999;50.940;3.998;2023-05-15T03:24:20;108.60;;;50.43;;
48945;SDS011;34999;50.940;3.998;2023-05-15T03:26:48;105.63;;;48.40;;
48945;SDS011;34999;50.940;3.998;2023-05-15T03:29:16;101.47;;;46.83;;
48945;SDS011;34999;50.940;3.998;2023-05-15T03:31:44;100.63;;;46.03;;
48945;SDS011;34999;50.940;3.998;2023-05-15T03:34:13;106.93;;;47.87;;
48945;SDS011;34999;50.940;3.998;2023-05-15T03:36:41;100.33;;;47.80;;
48945;SDS011;34999;50.940;3.998;2023-05-15T03:39:09;112.10;;;47.37;;
48945;SDS011;34999;50.940;3.998;2023-05-15T03:41:39;109.10;;;48.63;;
48945;SDS011;34999;50.940;3.998;2023-05-15T03:44:07;103.00;;;45.97;;
48945;SDS011;34999;50.940;3.998;2023-05-15T03:46:35;94.50;;;45.50;;
48945;SDS011;34999;50.940;3.998;2023-05-15T03:49:03;89.87;;;43.90;;
48945;SDS011;34999;50.940;3.998;2023-05-15T03:51:31;89.67;;;44.67;;
48945;SDS011;34999;50.940;3.998;2023-05-15T03:53:59;95.27;;;45.13;;
48945;SDS011;34999;50.940;3.998;2023-05-15T03:56:30;94.47;;;44.63;;
48945;SDS011;34999;50.940;3.998;2023-05-15T03:59:00;92.03;;;45.17;;
48945;SDS011;34999;50.940;3.998;2023-05-15T04:01:28;90.30;;;43.80;;
48945;SDS011;34999;50.940;3.998;2023-05-15T04:03:56;92.53;;;45.07;;
48945;SDS011;34999;50.940;3.998;2023-05-15T04:06:24;97.13;;;46.07;;
48945;SDS011;34999;50.940;3.998;2023-05-15T04:08:52;90.20;;;41.90;;
48945;SDS011;34999;50.940;3.998;2023-05-15T04:11:22;81.53;;;41.60;;
48945;SDS011;34999;50.940;3.998;2023-05-15T04:13:50;81.60;;;40.83;;
48945;SDS011;34999;50.940;3.998;2023-05-15T04:16:20;85.73;;;42.63;;
48945;SDS011;34999;50.940;3.998;2023-05-15T04:18:48;85.67;;;42.93;;
48945;SDS011;34999;50.940;3.998;2023-05-15T04:21:16;90.67;;;42.40;;
48945;SDS011;34999;50.940;3.998;2023-05-15T04:23:45;84.67;;;40.13;;
48945;SDS011;34999;50.940;3.998;2023-05-15T04:26:13;93.27;;;42.77;;
48945;SDS011;34999;50.940;3.998;2023-05-15T04:28:41;83.37;;;41.87;;
48945;SDS011;34999;50.940;3.998;2023-05-15T04:31:23;92.03;;;41.50;;
48945;SDS011;34999;50.940;3.998;2023-05-15T04:33:51;86.37;;;40.40;;
48945;SDS011;34999;50.940;3.998;2023-05-15T04:36:19;88.00;;;40.83;;
48945;SDS011;34999;50.940;3.998;2023-05-15T04:38:48;86.27;;;42.23;;
48945;SDS011;34999;50.940;3.998;2023-05-15T04:41:16;93.07;;;42.37;;
48945;SDS011;34999;50.940;3.998;2023-05-15T04:46:35;94.03;;;43.27;;
48945;SDS011;34999;50.940;3.998;2023-05-15T04:49:05;91.53;;;42.73;;
48945;SDS011;34999;50.940;3.998;2023-05-15T04:51:33;92.20;;;42.60;;
48945;SDS011;34999;50.940;3.998;2023-05-15T04:54:01;85.20;;;39.27;;
48945;SDS011;34999;50.940;3.998;2023-05-15T04:56:30;89.87;;;41.50;;
48945;SDS011;34999;50.940;3.998;2023-05-15T04:58:58;82.83;;;39.47;;
48945;SDS011;34999;50.940;3.998;2023-05-15T05:01:26;88.03;;;39.77;;
48945;SDS011;34999;50.940;3.998;2023-05-15T05:03:56;88.83;;;40.80;;
48945;SDS011;34999;50.940;3.998;2023-05-15T05:06:24;84.33;;;39.60;;
48945;SDS011;34999;50.940;3.998;2023-05-15T05:08:55;82.00;;;39.27;;
48945;SDS011;34999;50.940;3.998;2023-05-15T05:11:24;83.07;;;38.67;;
48945;SDS011;34999;50.940;3.998;2023-05-15T05:13:52;87.63;;;40.47;;
48945;SDS011;34999;50.940;3.998;2023-05-15T05:16:20;86.43;;;38.37;;
48945;SDS011;34999;50.940;3.998;2023-05-15T05:18:49;87.83;;;40.33;;
48945;SDS011;34999;50.940;3.998;2023-05-15T05:21:18;81.97;;;37.70;;
48945;SDS011;34999;50.940;3.998;2023-05-15T05:23:46;83.80;;;38.77;;
48945;SDS011;34999;50.940;3.998;2023-05-15T05:26:14;88.97;;;39.33;;
48945;SDS011;34999;50.940;3.998;2023-05-15T05:28:43;82.13;;;38.20;;
48945;SDS011;34999;50.940;3.998;2023-05-15T05:31:11;92.20;;;39.37;;
48945;SDS011;34999;50.940;3.998;2023-05-15T05:33:39;85.43;;;37.67;;
48945;SDS011;34999;50.940;3.998;2023-05-15T05:36:07;84.80;;;37.63;;
48945;SDS011;34999;50.940;3.998;2023-05-15T05:38:37;85.70;;;36.73;;
48945;SDS011;34999;50.940;3.998;2023-05-15T05:41:05;89.47;;;37.20;;
48945;SDS011;34999;50.940;3.998;2023-05-15T05:43:34;89.03;;;37.53;;
48945;SDS011;34999;50.940;3.998;2023-05-15T05:46:02;85.87;;;35.10;;
48945;SDS011;34999;50.940;3.998;2023-05-15T05:48:30;88.63;;;36.23;;
48945;SDS011;34999;50.940;3.998;2023-05-15T05:50:58;97.77;;;37.33;;
48945;SDS011;34999;50.940;3.998;2023-05-15T05:53:26;83.93;;;36.23;;
48945;SDS011;34999;50.940;3.998;2023-05-15T05:55:57;88.27;;;36.43;;
48945;SDS011;34999;50.940;3.998;2023-05-15T05:58:25;95.17;;;36.77;;
48945;SDS011;34999;50.940;3.998;2023-05-15T06:00:53;84.83;;;35.30;;
48945;SDS011;34999;50.940;3.998;2023-05-15T06:03:22;89.10;;;35.53;;
48945;SDS011;34999;50.940;3.998;2023-05-15T06:05:51;89.43;;;36.17;;
48945;SDS011;34999;50.940;3.998;2023-05-15T06:08:19;86.90;;;35.70;;
48945;SDS011;34999;50.940;3.998;2023-05-15T06:10:48;91.30;;;35.27;;
48945;SDS011;34999;50.940;3.998;2023-05-15T06:13:17;82.47;;;35.83;;
48945;SDS011;34999;50.940;3.998;2023-05-15T06:15:45;81.97;;;32.63;;
48945;SDS011;34999;50.940;3.998;2023-05-15T06:18:14;77.70;;;33.17;;
48945;SDS011;34999;50.940;3.998;2023-05-15T06:20:42;84.03;;;33.23;;
48945;SDS011;34999;50.940;3.998;2023-05-15T06:23:10;75.87;;;32.10;;
48945;SDS011;34999;50.940;3.998;2023-05-15T06:25:38;76.70;;;32.57;;
48945;SDS011;34999;50.940;3.998;2023-05-15T06:28:06;77.57;;;34.03;;
48945;SDS011;34999;50.940;3.998;2023-05-15T06:30:36;73.60;;;33.53;;
48945;SDS011;34999;50.940;3.998;2023-05-15T06:33:04;76.73;;;34.03;;
48945;SDS011;34999;50.940;3.998;2023-05-15T06:35:33;78.47;;;33.67;;
48945;SDS011;34999;50.940;3.998;2023-05-15T06:38:01;85.50;;;34.47;;
48945;SDS011;34999;50.940;3.998;2023-05-15T06:40:30;84.77;;;35.40;;
48945;SDS011;34999;50.940;3.998;2023-05-15T06:42:58;91.80;;;36.37;;
48945;SDS011;34999;50.940;3.998;2023-05-15T06:45:26;77.27;;;33.97;;
48945;SDS011;34999;50.940;3.998;2023-05-15T06:47:56;78.73;;;32.70;;
48945;SDS011;34999;50.940;3.998;2023-05-15T06:50:27;85.97;;;34.47;;
48945;SDS011;34999;50.940;3.998;2023-05-15T06:52:55;78.33;;;32.67;;
48945;SDS011;34999;50.940;3.998;2023-05-15T06:55:23;81.67;;;34.20;;
48945;SDS011;34999;50.940;3.998;2023-05-15T06:57:52;73.97;;;31.77;;
48945;SDS011;34999;50.940;3.998;2023-05-15T07:00:20;73.63;;;32.23;;
48945;SDS011;34999;50.940;3.998;2023-05-15T07:02:48;77.53;;;32.77;;
48945;SDS011;34999;50.940;3.998;2023-05-15T07:05:18;73.50;;;31.73;;
48945;SDS011;34999;50.940;3.998;2023-05-15T07:07:47;69.70;;;31.37;;
48945;SDS011;34999;50.940;3.998;2023-05-15T07:10:15;71.83;;;33.50;;
48945;SDS011;34999;50.940;3.998;2023-05-15T07:12:43;70.53;;;32.70;;
48945;SDS011;34999;50.940;3.998;2023-05-15T07:15:12;74.77;;;32.23;;
48945;SDS011;34999;50.940;3.998;2023-05-15T07:17:40;78.50;;;33.93;;
48945;SDS011;34999;50.940;3.998;2023-05-15T07:20:08;73.13;;;32.80;;
48945;SDS011;34999;50.940;3.998;2023-05-15T07:22:38;70.33;;;31.63;;
48945;SDS011;34999;50.940;3.998;2023-05-15T07:25:21;76.23;;;34.00;;
48945;SDS011;34999;50.940;3.998;2023-05-15T07:27:50;77.27;;;34.33;;
48945;SDS011;34999;50.940;3.998;2023-05-15T07:30:19;76.17;;;33.27;;
48945;SDS011;34999;50.940;3.998;2023-05-15T07:32:47;78.23;;;33.67;;
48945;SDS011;34999;50.940;3.998;2023-05-15T07:35:15;72.93;;;31.50;;
48945;SDS011;34999;50.940;3.998;2023-05-15T07:37:46;70.40;;;32.60;;
48945;SDS011;34999;50.940;3.998;2023-05-15T07:40:14;70.67;;;31.63;;
48945;SDS011;34999;50.940;3.998;2023-05-15T07:42:42;70.50;;;30.13;;
48945;SDS011;34999;50.940;3.998;2023-05-15T07:45:11;76.43;;;31.10;;
48945;SDS011;34999;50.940;3.998;2023-05-15T07:47:40;63.17;;;28.83;;
48945;SDS011;34999;50.940;3.998;2023-05-15T07:50:11;65.90;;;28.97;;
48945;SDS011;34999;50.940;3.998;2023-05-15T07:52:39;67.93;;;31.00;;
48945;SDS011;34999;50.940;3.998;2023-05-15T07:55:10;72.20;;;29.73;;
48945;SDS011;34999;50.940;3.998;2023-05-15T07:57:38;65.30;;;28.37;;
48945;SDS011;34999;50.940;3.998;2023-05-15T08:00:07;66.63;;;28.77;;
48945;SDS011;34999;50.940;3.998;2023-05-15T08:02:38;66.57;;;29.93;;
48945;SDS011;34999;50.940;3.998;2023-05-15T08:05:06;73.10;;;29.93;;
48945;SDS011;34999;50.940;3.998;2023-05-15T08:07:35;69.53;;;29.80;;
48945;SDS011;34999;50.940;3.998;2023-05-15T08:10:04;67.03;;;29.53;;
48945;SDS011;34999;50.940;3.998;2023-05-15T08:12:35;68.40;;;29.43;;
48945;SDS011;34999;50.940;3.998;2023-05-15T08:15:03;66.40;;;27.27;;
48945;SDS011;34999;50.940;3.998;2023-05-15T08:17:32;67.43;;;28.67;;
48945;SDS011;34999;50.940;3.998;2023-05-15T08:20:01;59.37;;;26.27;;
48945;SDS011;34999;50.940;3.998;2023-05-15T08:22:30;66.37;;;29.43;;
48945;SDS011;34999;50.940;3.998;2023-05-15T08:24:58;63.83;;;29.00;;
48945;SDS011;34999;50.940;3.998;2023-05-15T08:27:29;73.87;;;30.57;;
48945;SDS011;34999;50.940;3.998;2023-05-15T08:29:58;62.67;;;28.10;;
48945;SDS011;34999;50.940;3.998;2023-05-15T08:32:26;66.43;;;28.83;;
48945;SDS011;34999;50.940;3.998;2023-05-15T08:34:55;73.07;;;29.97;;
48945;SDS011;34999;50.940;3.998;2023-05-15T08:37:24;74.83;;;31.53;;
48945;SDS011;34999;50.940;3.998;2023-05-15T08:39:52;76.10;;;31.30;;
48945;SDS011;34999;50.940;3.998;2023-05-15T08:42:20;72.50;;;30.73;;
48945;SDS011;34999;50.940;3.998;2023-05-15T08:44:54;69.87;;;30.10;;
48945;SDS011;34999;50.940;3.998;2023-05-15T08:47:24;69.97;;;30.47;;
48945;SDS011;34999;50.940;3.998;2023-05-15T08:49:57;74.03;;;31.33;;
48945;SDS011;34999;50.940;3.998;2023-05-15T08:52:32;75.23;;;32.53;;
48945;SDS011;34999;50.940;3.998;2023-05-15T08:55:01;75.83;;;31.43;;
48945;SDS011;34999;50.940;3.998;2023-05-15T08:57:30;69.40;;;30.53;;
48945;SDS011;34999;50.940;3.998;2023-05-15T09:00:00;78.03;;;32.00;;
48945;SDS011;34999;50.940;3.998;2023-05-15T09:02:35;68.23;;;30.73;;
48945;SDS011;34999;50.940;3.998;2023-05-15T09:05:04;76.80;;;32.30;;
48945;SDS011;34999;50.940;3.998;2023-05-15T09:07:34;71.53;;;30.47;;
48945;SDS011;34999;50.940;3.998;2023-05-15T09:10:04;79.43;;;32.70;;
48945;SDS011;34999;50.940;3.998;2023-05-15T09:12:33;76.10;;;30.20;;
48945;SDS011;34999;50.940;3.998;2023-05-15T09:15:07;78.27;;;32.80;;
48945;SDS011;34999;50.940;3.998;2023-05-15T09:17:38;76.53;;;31.07;;
48945;SDS011;34999;50.940;3.998;2023-05-15T09:20:23;80.33;;;32.30;;
48945;SDS011;34999;50.940;3.998;2023-05-15T09:22:52;74.73;;;31.13;;
48945;SDS011;34999;50.940;3.998;2023-05-15T09:25:30;85.67;;;34.60;;
48945;SDS011;34999;50.940;3.998;2023-05-15T09:28:01;90.13;;;35.70;;
48945;SDS011;34999;50.940;3.998;2023-05-15T09:30:29;89.83;;;35.57;;
48945;SDS011;34999;50.940;3.998;2023-05-15T09:32:59;91.10;;;35.47;;
48945;SDS011;34999;50.940;3.998;2023-05-15T09:35:32;85.50;;;35.57;;
48945;SDS011;34999;50.940;3.998;2023-05-15T09:38:02;90.57;;;37.73;;
48945;SDS011;34999;50.940;3.998;2023-05-15T09:40:34;86.07;;;35.77;;
48945;SDS011;34999;50.940;3.998;2023-05-15T09:43:02;80.97;;;35.87;;
48945;SDS011;34999;50.940;3.998;2023-05-15T09:45:31;83.00;;;36.47;;
48945;SDS011;34999;50.940;3.998;2023-05-15T09:48:00;82.73;;;35.73;;
48945;SDS011;34999;50.940;3.998;2023-05-15T09:50:32;85.33;;;36.97;;
48945;SDS011;34999;50.940;3.998;2023-05-15T09:53:02;85.10;;;36.80;;
48945;SDS011;34999;50.940;3.998;2023-05-15T09:55:31;87.57;;;37.97;;
48945;SDS011;34999;50.940;3.998;2023-05-15T09:58:03;88.07;;;39.03;;
48945;SDS011;34999;50.940;3.998;2023-05-15T10:00:34;91.30;;;40.87;;
48945;SDS011;34999;50.940;3.998;2023-05-15T10:03:15;83.30;;;39.03;;
48945;SDS011;34999;50.940;3.998;2023-05-15T10:05:45;91.07;;;40.80;;
48945;SDS011;34999;50.940;3.998;2023-05-15T10:08:13;91.03;;;38.83;;
48945;SDS011;34999;50.940;3.998;2023-05-15T10:10:42;109.80;;;45.83;;
48945;SDS011;34999;50.940;3.998;2023-05-15T10:13:12;102.10;;;45.37;;
48945;SDS011;34999;50.940;3.998;2023-05-15T10:15:40;97.37;;;43.03;;
48945;SDS011;34999;50.940;3.998;2023-05-15T10:18:09;87.33;;;39.50;;
48945;SDS011;34999;50.940;3.998;2023-05-15T10:20:40;89.20;;;41.00;;
48945;SDS011;34999;50.940;3.998;2023-05-15T10:23:09;79.60;;;38.83;;
48945;SDS011;34999;50.940;3.998;2023-05-15T10:25:40;78.43;;;38.17;;
48945;SDS011;34999;50.940;3.998;2023-05-15T10:28:11;80.23;;;38.23;;
48945;SDS011;34999;50.940;3.998;2023-05-15T10:30:40;77.63;;;37.33;;
48945;SDS011;34999;50.940;3.998;2023-05-15T10:33:09;66.37;;;34.23;;
48945;SDS011;34999;50.940;3.998;2023-05-15T10:35:40;69.47;;;34.83;;
48945;SDS011;34999;50.940;3.998;2023-05-15T10:38:09;75.67;;;35.43;;
48945;SDS011;34999;50.940;3.998;2023-05-15T10:40:39;74.40;;;36.03;;
48945;SDS011;34999;50.940;3.998;2023-05-15T10:43:08;72.70;;;36.20;;
48945;SDS011;34999;50.940;3.998;2023-05-15T10:45:37;72.63;;;34.20;;
48945;SDS011;34999;50.940;3.998;2023-05-15T10:48:06;72.43;;;33.87;;
48945;SDS011;34999;50.940;3.998;2023-05-15T10:50:37;66.60;;;34.13;;
48945;SDS011;34999;50.940;3.998;2023-05-15T10:53:09;69.77;;;33.93;;
48945;SDS011;34999;50.940;3.998;2023-05-15T10:55:38;70.83;;;34.07;;
48945;SDS011;34999;50.940;3.998;2023-05-15T10:58:09;71.07;;;35.80;;
48945;SDS011;34999;50.940;3.998;2023-05-15T11:00:41;62.90;;;32.60;;
48945;SDS011;34999;50.940;3.998;2023-05-15T11:03:13;67.93;;;35.13;;
48945;SDS011;34999;50.940;3.998;2023-05-15T11:08:37;69.33;;;35.03;;
48945;SDS011;34999;50.940;3.998;2023-05-15T11:11:06;67.07;;;34.13;;
48945;SDS011;34999;50.940;3.998;2023-05-15T11:19:30;60.77;;;31.10;;
48945;SDS011;34999;50.940;3.998;2023-05-15T11:22:14;64.57;;;32.33;;
48945;SDS011;34999;50.940;3.998;2023-05-15T11:24:49;70.17;;;33.37;;
48945;SDS011;34999;50.940;3.998;2023-05-15T11:27:19;62.13;;;31.60;;
48945;SDS011;34999;50.940;3.998;2023-05-15T11:30:07;66.23;;;31.90;;
48945;SDS011;34999;50.940;3.998;2023-05-15T11:32:41;65.03;;;31.77;;
48945;SDS011;34999;50.940;3.998;2023-05-15T11:35:10;65.33;;;32.23;;
48945;SDS011;34999;50.940;3.998;2023-05-15T11:37:42;67.13;;;32.87;;
48945;SDS011;34999;50.940;3.998;2023-05-15T11:40:17;64.13;;;30.37;;
48945;SDS011;34999;50.940;3.998;2023-05-15T11:42:57;62.70;;;31.03;;
48945;SDS011;34999;50.940;3.998;2023-05-15T11:45:30;67.87;;;31.20;;
48945;SDS011;34999;50.940;3.998;2023-05-15T11:48:02;63.47;;;31.00;;
48945;SDS011;34999;50.940;3.998;2023-05-15T11:50:32;64.77;;;30.60;;
48945;SDS011;34999;50.940;3.998;2023-05-15T11:53:02;63.97;;;30.20;;
48945;SDS011;34999;50.940;3.998;2023-05-15T11:55:33;64.67;;;30.27;;
48945;SDS011;34999;50.940;3.998;2023-05-15T11:58:03;61.53;;;28.20;;
48945;SDS011;34999;50.940;3.998;2023-05-15T12:00:32;68.93;;;30.00;;
48945;SDS011;34999;50.940;3.998;2023-05-15T12:03:00;66.73;;;30.00;;
48945;SDS011;34999;50.940;3.998;2023-05-15T12:05:30;58.93;;;27.83;;
48945;SDS011;34999;50.940;3.998;2023-05-15T12:07:58;57.93;;;26.00;;
48945;SDS011;34999;50.940;3.998;2023-05-15T12:10:28;61.37;;;27.20;;
48945;SDS011;34999;50.940;3.998;2023-05-15T12:12:59;49.50;;;23.67;;
48945;SDS011;34999;50.940;3.998;2023-05-15T12:15:27;29.27;;;14.33;;
48945;SDS011;34999;50.940;3.998;2023-05-15T12:17:55;19.27;;;10.90;;
48945;SDS011;34999;50.940;3.998;2023-05-15T12:20:24;13.50;;;8.97;;
48945;SDS011;34999;50.940;3.998;2023-05-15T12:26:33;11.67;;;8.63;;
48945;SDS011;34999;50.940;3.998;2023-05-15T12:29:03;12.20;;;8.60;;
48945;SDS011;34999;50.940;3.998;2023-05-15T12:31:32;12.43;;;9.20;;
48945;SDS011;34999;50.940;3.998;2023-05-15T12:34:02;10.93;;;8.80;;
48945;SDS011;34999;50.940;3.998;2023-05-15T12:36:30;10.97;;;8.47;;
48945;SDS011;34999;50.940;3.998;2023-05-15T12:39:02;10.30;;;8.50;;
48945;SDS011;34999;50.940;3.998;2023-05-15T12:41:33;14.20;;;7.30;;
48945;SDS011;34999;50.940;3.998;2023-05-15T12:44:05;7.03;;;5.30;;
48945;SDS011;34999;50.940;3.998;2023-05-15T12:46:41;11.43;;;4.93;;
48945;SDS011;34999;50.940;3.998;2023-05-15T12:49:10;8.17;;;4.77;;
48945;SDS011;34999;50.940;3.998;2023-05-15T12:51:41;5.93;;;4.97;;
48945;SDS011;34999;50.940;3.998;2023-05-15T12:54:15;6.47;;;5.23;;
48945;SDS011;34999;50.940;3.998;2023-05-15T12:56:45;4.80;;;4.37;;
48945;SDS011;34999;50.940;3.998;2023-05-15T12:59:15;6.53;;;4.50;;
48945;SDS011;34999;50.940;3.998;2023-05-15T13:01:43;7.87;;;4.47;;
48945;SDS011;34999;50.940;3.998;2023-05-15T13:04:12;10.17;;;4.30;;
48945;SDS011;34999;50.940;3.998;2023-05-15T13:06:42;7.23;;;3.77;;
48945;SDS011;34999;50.940;3.998;2023-05-15T13:09:13;7.77;;;4.10;;
48945;SDS011;34999;50.940;3.998;2023-05-15T13:11:48;11.93;;;4.67;;
48945;SDS011;34999;50.940;3.998;2023-05-15T13:14:18;10.00;;;4.60;;
48945;SDS011;34999;50.940;3.998;2023-05-15T13:16:48;7.90;;;4.27;;
48945;SDS011;34999;50.940;3.998;2023-05-15T13:19:16;6.93;;;4.23;;
48945;SDS011;34999;50.940;3.998;2023-05-15T13:21:45;8.70;;;4.43;;
48945;SDS011;34999;50.940;3.998;2023-05-15T13:24:16;9.50;;;5.53;;
48945;SDS011;34999;50.940;3.998;2023-05-15T13:26:44;12.77;;;6.20;;
48945;SDS011;34999;50.940;3.998;2023-05-15T13:29:12;11.27;;;6.03;;
48945;SDS011;34999;50.940;3.998;2023-05-15T13:31:42;10.73;;;7.07;;
48945;SDS011;34999;50.940;3.998;2023-05-15T13:34:11;13.97;;;8.30;;
48945;SDS011;34999;50.940;3.998;2023-05-15T13:36:39;16.10;;;8.50;;
48945;SDS011;34999;50.940;3.998;2023-05-15T13:39:07;12.57;;;6.80;;
48945;SDS011;34999;50.940;3.998;2023-05-15T13:41:35;11.23;;;6.77;;
48945;SDS011;34999;50.940;3.998;2023-05-15T13:44:04;12.23;;;7.10;;
48945;SDS011;34999;50.940;3.998;2023-05-15T13:46:32;18.23;;;8.63;;
48945;SDS011;34999;50.940;3.998;2023-05-15T13:49:02;15.07;;;9.73;;
48945;SDS011;34999;50.940;3.998;2023-05-15T13:51:32;19.73;;;10.53;;
48945;SDS011;34999;50.940;3.998;2023-05-15T13:54:00;17.07;;;9.97;;
48945;SDS011;34999;50.940;3.998;2023-05-15T13:56:29;17.93;;;9.30;;
48945;SDS011;34999;50.940;3.998;2023-05-15T13:58:57;17.27;;;7.67;;
48945;SDS011;34999;50.940;3.998;2023-05-15T14:01:25;12.80;;;6.13;;
48945;SDS011;34999;50.940;3.998;2023-05-15T14:03:54;9.53;;;5.77;;
48945;SDS011;34999;50.940;3.998;2023-05-15T14:06:23;13.77;;;6.30;;
48945;SDS011;34999;50.940;3.998;2023-05-15T14:08:55;15.57;;;7.70;;
48945;SDS011;34999;50.940;3.998;2023-05-15T14:11:24;12.77;;;7.40;;
48945;SDS011;34999;50.940;3.998;2023-05-15T14:13:52;11.23;;;8.40;;
48945;SDS011;34999;50.940;3.998;2023-05-15T14:16:20;20.03;;;8.23;;
48945;SDS011;34999;50.940;3.998;2023-05-15T14:18:48;11.90;;;8.03;;
48945;SDS011;34999;50.940;3.998;2023-05-15T14:21:17;16.07;;;7.83;;
48945;SDS011;34999;50.940;3.998;2023-05-15T14:23:46;16.43;;;7.80;;
48945;SDS011;34999;50.940;3.998;2023-05-15T14:26:15;14.57;;;6.93;;
48945;SDS011;34999;50.940;3.998;2023-05-15T14:28:43;11.90;;;5.97;;
48945;SDS011;34999;50.940;3.998;2023-05-15T14:31:11;12.87;;;6.30;;
48945;SDS011;34999;50.940;3.998;2023-05-15T14:33:39;13.77;;;6.23;;
48945;SDS011;34999;50.940;3.998;2023-05-15T14:36:08;11.03;;;6.50;;
48945;SDS011;34999;50.940;3.998;2023-05-15T14:38:36;16.67;;;6.93;;
48945;SDS011;34999;50.940;3.998;2023-05-15T14:41:06;16.30;;;6.93;;
48945;SDS011;34999;50.940;3.998;2023-05-15T14:43:34;18.47;;;6.97;;
48945;SDS011;34999;50.940;3.998;2023-05-15T14:46:03;13.60;;;6.77;;
48945;SDS011;34999;50.940;3.998;2023-05-15T14:48:33;18.37;;;6.83;;
48945;SDS011;34999;50.940;3.998;2023-05-15T14:51:01;17.53;;;6.73;;
48945;SDS011;34999;50.940;3.998;2023-05-15T14:53:29;13.93;;;7.13;;
48945;SDS011;34999;50.940;3.998;2023-05-15T14:55:58;15.40;;;6.70;;
48945;SDS011;34999;50.940;3.998;2023-05-15T14:58:27;11.93;;;6.17;;
48945;SDS011;34999;50.940;3.998;2023-05-15T15:00:56;14.93;;;6.60;;
48945;SDS011;34999;50.940;3.998;2023-05-15T15:03:24;14.20;;;6.87;;
48945;SDS011;34999;50.940;3.998;2023-05-15T15:05:54;13.37;;;6.97;;